Saint Walburg, Canada
Current Conditions -  °F | °C
As of 6:00 AM on Sunday 21 Dec 2014 (Local Time) from CYLL Reporting Station
Moderate Snow Moderate Snow  
Wind Chill:   Ceiling: 200
Heat Index: 16°   Visibility: 0.5mi
Dew Point: 14°   Wind: 13mph
Humidity: 93%   Direction: 110°ESE
Pressure: 29.35"   Gusts: 18mph
Location:  53.63°N, 109.2°W
Report Text: CYLL 211200Z AUTO 11011G16KT 1/2SM SN VV002 M09/M10 A2935 RMK ICG SLP981
Loading
Personal Weather Stations






























Interactive Weather Map New forecast layout! Learn more

10-Day Weather Forecast

Advertisements
Track Severe Weather on mobile